Time;durP1;ratioP1;P1;durP2;ratioP2;P2;SDS_P1;SDS_P2;PMS_P1;PMS_P2;Temp;Humidity;BMP_temperature;BMP_pressure;BME280_temperature;BME280_humidity;BME280_pressure;Samples;Min_cycle;Max_cycle;Signal;HPM_P1;HPM_P2
2022/11/20 05:02:27;;;;;;;8.90;5.00;;;7.80;99.90;;;;;;4974635;23;20044;-70
2022/11/20 05:04:52;;;;;;;10.77;4.83;;;7.80;99.90;;;;;;4916368;29;20386;-69
2022/11/20 05:07:18;;;;;;;11.07;5.33;;;7.80;99.90;;;;;;4917349;29;20060;-70
2022/11/20 05:09:44;;;;;;;8.23;4.90;;;7.80;99.90;;;;;;4917102;29;20024;-69
2022/11/20 05:12:10;;;;;;;7.07;4.40;;;7.80;99.90;;;;;;4917045;29;20456;-69
2022/11/20 05:14:35;;;;;;;8.20;4.65;;;7.80;99.90;;;;;;4919008;29;20030;-70
2022/11/20 05:17:01;;;;;;;13.00;5.80;;;7.90;99.90;;;;;;4918359;29;20465;-70
2022/11/20 05:19:26;;;;;;;6.83;4.33;;;7.90;99.90;;;;;;4918276;29;20040;-70
2022/11/20 05:21:52;;;;;;;9.13;5.10;;;7.80;99.90;;;;;;4918155;29;20032;-70
2022/11/20 05:24:17;;;;;;;6.63;4.40;;;7.80;99.90;;;;;;4917120;29;20469;-70
2022/11/20 05:26:44;;;;;;;6.90;4.10;;;7.80;99.90;;;;;;4916716;29;20473;-70
2022/11/20 05:29:11;;;;;;;5.30;4.10;;;7.80;99.90;;;;;;4918332;29;20453;-69
2022/11/20 05:31:39;;;;;;;6.53;4.68;;;7.90;99.90;;;;;;4918057;29;20178;-69
2022/11/20 05:34:04;;;;;;;7.20;4.53;;;7.90;99.90;;;;;;4917101;29;20047;-70
2022/11/20 05:36:30;;;;;;;7.53;4.70;;;7.90;99.90;;;;;;4916642;29;20054;-70
2022/11/20 05:38:56;;;;;;;6.47;4.10;;;7.80;99.90;;;;;;4917886;29;20107;-70
2022/11/20 05:41:21;;;;;;;6.57;4.00;;;7.90;99.90;;;;;;4916859;29;20068;-70
2022/11/20 05:43:48;;;;;;;6.50;4.17;;;7.90;99.90;;;;;;4918308;29;20059;-69
2022/11/20 05:46:17;;;;;;;8.80;3.97;;;8.00;99.90;;;;;;4915059;29;20036;-71
2022/11/20 05:48:43;;;;;;;7.32;4.53;;;8.00;99.90;;;;;;4897842;29;20033;-69
2022/11/20 05:51:12;;;;;;;6.05;3.47;;;8.00;99.90;;;;;;4898887;29;20047;-70
2022/11/20 05:53:37;;;;;;;8.38;4.22;;;8.00;99.90;;;;;;4898690;29;20111;-69
2022/11/20 05:56:06;;;;;;;6.33;3.70;;;7.90;99.90;;;;;;4899156;29;20056;-70
2022/11/20 05:58:32;;;;;;;4.63;3.10;;;8.10;99.90;;;;;;4898147;29;20032;-70
2022/11/20 06:01:08;;;;;;;5.63;3.65;;;8.00;99.90;;;;;;4897735;29;20509;-71
2022/11/20 06:03:34;;;;;;;5.53;3.75;;;8.10;99.90;;;;;;4897670;29;20032;-68
2022/11/20 06:06:00;;;;;;;4.87;3.60;;;8.00;99.90;;;;;;4898257;29;20040;-69
2022/11/20 06:08:26;;;;;;;5.90;3.25;;;8.00;99.90;;;;;;4898762;29;20157;-69
2022/11/20 06:10:51;;;;;;;6.63;2.97;;;8.00;99.90;;;;;;4899243;29;20111;-69
2022/11/20 06:13:17;;;;;;;7.87;3.27;;;7.90;99.90;;;;;;4899605;29;20028;-69
2022/11/20 06:15:51;;;;;;;4.63;3.07;;;7.90;99.90;;;;;;4899761;29;20359;-70
2022/11/20 06:18:17;;;;;;;5.05;3.33;;;8.10;99.90;;;;;;4897738;29;20499;-69
2022/11/20 06:20:43;;;;;;;4.50;3.10;;;7.90;99.90;;;;;;4881724;29;20120;-69
2022/11/20 06:23:09;;;;;;;4.90;3.00;;;8.00;99.90;;;;;;4887653;29;20116;-69
2022/11/20 06:25:38;;;;;;;4.47;3.03;;;8.00;99.90;;;;;;4889388;29;20037;-69
2022/11/20 06:28:04;;;;;;;5.35;3.08;;;7.90;99.90;;;;;;4890351;29;20029;-70
2022/11/20 06:30:29;;;;;;;7.40;2.97;;;7.90;99.90;;;;;;4906688;29;20103;-70
2022/11/20 06:32:55;;;;;;;5.10;3.07;;;8.00;99.90;;;;;;4910891;29;20099;-69
2022/11/20 06:35:20;;;;;;;4.83;2.90;;;8.00;99.90;;;;;;4908318;29;20043;-70
2022/11/20 06:37:46;;;;;;;6.70;2.93;;;8.00;99.90;;;;;;4905761;29;20029;-69
2022/11/20 06:40:12;;;;;;;5.23;3.30;;;8.10;99.90;;;;;;4906192;29;20088;-69
2022/11/20 06:42:37;;;;;;;4.47;2.70;;;8.10;99.90;;;;;;4896940;29;20029;-70
2022/11/20 06:45:04;;;;;;;6.37;3.03;;;8.00;99.90;;;;;;4898062;29;20608;-70
2022/11/20 06:47:30;;;;;;;5.30;3.30;;;8.00;99.90;;;;;;4896397;29;20024;-70
2022/11/20 06:49:55;;;;;;;5.40;3.50;;;8.00;99.90;;;;;;4903722;29;20500;-70
2022/11/20 06:52:21;;;;;;;8.13;3.10;;;7.90;99.90;;;;;;4898253;29;20036;-70
2022/11/20 06:54:47;;;;;;;5.50;3.58;;;8.00;99.90;;;;;;4898257;29;20044;-69
2022/11/20 06:57:12;;;;;;;6.17;3.27;;;8.00;99.90;;;;;;4897638;29;20040;-70
2022/11/20 06:59:38;;;;;;;6.10;3.07;;;7.90;99.90;;;;;;4898303;29;20454;-69
2022/11/20 07:02:03;;;;;;;5.07;3.20;;;8.00;99.90;;;;;;4896622;29;20069;-69
2022/11/20 07:04:29;;;;;;;4.73;2.73;;;8.00;99.90;;;;;;4909111;29;20036;-69
2022/11/20 07:06:54;;;;;;;6.33;3.03;;;7.90;99.90;;;;;;4919433;29;20036;-69
2022/11/20 07:09:20;;;;;;;6.17;3.10;;;7.90;99.90;;;;;;4919288;29;20035;-70
2022/11/20 07:11:45;;;;;;;4.80;2.63;;;8.00;99.90;;;;;;4920002;29;20032;-69
2022/11/20 07:14:11;;;;;;;3.50;2.80;;;8.00;99.90;;;;;;4920516;29;20039;-70
2022/11/20 07:16:36;;;;;;;2.93;2.60;;;8.00;99.90;;;;;;4919161;29;20032;-70
2022/11/20 07:19:02;;;;;;;3.87;2.90;;;7.90;99.90;;;;;;4919512;29;20043;-68
2022/11/20 07:21:27;;;;;;;5.20;2.90;;;7.90;99.90;;;;;;4918580;29;20378;-68
2022/11/20 07:23:53;;;;;;;7.20;2.87;;;7.90;99.90;;;;;;4915813;29;20627;-68
2022/11/20 07:26:19;;;;;;;4.20;2.93;;;7.90;99.90;;;;;;4914604;29;20418;-68
2022/11/20 07:28:45;;;;;;;4.47;2.92;;;7.90;99.90;;;;;;4909394;29;20024;-69
2022/11/20 07:31:12;;;;;;;6.65;3.53;;;7.90;99.90;;;;;;4899792;29;20187;-69
2022/11/20 07:33:38;;;;;;;4.28;3.20;;;7.90;99.90;;;;;;4904623;29;20028;-68
2022/11/20 07:36:04;;;;;;;5.27;2.97;;;7.90;99.90;;;;;;4920569;29;20550;-70
2022/11/20 07:38:30;;;;;;;5.63;3.78;;;7.90;99.90;;;;;;4918905;29;20028;-69
2022/11/20 07:40:57;;;;;;;4.47;2.80;;;8.00;99.90;;;;;;4919907;29;20088;-70
2022/11/20 07:43:23;;;;;;;5.07;3.25;;;8.00;99.90;;;;;;4919706;29;20314;-69
2022/11/20 07:45:49;;;;;;;6.22;3.45;;;7.90;99.90;;;;;;4918807;29;20024;-73
2022/11/20 07:48:15;;;;;;;4.63;3.37;;;8.00;99.90;;;;;;4920888;29;20064;-76
2022/11/20 07:50:40;;;;;;;5.40;3.03;;;8.00;99.90;;;;;;4919107;29;20032;-72
2022/11/20 07:53:06;;;;;;;6.37;3.53;;;7.90;99.90;;;;;;4918339;29;20029;-74
2022/11/20 07:55:32;;;;;;;4.77;3.27;;;8.00;99.90;;;;;;4905282;29;20050;-74
2022/11/20 07:57:58;;;;;;;5.68;3.80;;;7.90;99.90;;;;;;4882917;29;20040;-72
2022/11/20 08:00:24;;;;;;;5.30;3.75;;;8.00;99.90;;;;;;4882412;29;20060;-74
2022/11/20 08:02:50;;;;;;;7.28;4.07;;;7.90;99.90;;;;;;4880804;29;20502;-72
2022/11/20 08:05:15;;;;;;;8.63;3.97;;;7.80;99.90;;;;;;4893985;29;20068;-72
2022/11/20 08:07:43;;;;;;;7.07;3.53;;;7.90;99.90;;;;;;4900217;29;20529;-71
2022/11/20 08:10:11;;;;;;;6.25;3.72;;;7.90;99.90;;;;;;4915078;29;20028;-72
2022/11/20 08:15:32;;;;;;;6.65;4.55;;;7.90;99.90;;;;;;4901365;29;20108;-70
2022/11/20 08:18:10;;;;;;;5.50;4.32;;;7.90;99.90;;;;;;4897033;29;20029;-72
2022/11/20 08:20:36;;;;;;;6.45;4.15;;;7.90;99.90;;;;;;4884411;29;20089;-71
2022/11/20 08:23:05;;;;;;;5.80;3.78;;;7.90;99.90;;;;;;4883445;29;20037;-71
2022/11/20 08:25:32;;;;;;;7.90;4.78;;;7.80;99.90;;;;;;4898452;29;20115;-71
2022/11/20 08:28:00;;;;;;;8.38;4.03;;;7.80;99.90;;;;;;4900523;29;20036;-71
2022/11/20 08:30:26;;;;;;;5.53;3.90;;;7.90;99.90;;;;;;4900264;29;20108;-71
2022/11/20 08:32:52;;;;;;;6.25;3.58;;;7.90;99.90;;;;;;4884011;29;20116;-71
2022/11/20 08:35:18;;;;;;;6.47;4.38;;;7.90;99.90;;;;;;4911035;29;20036;-71
2022/11/20 08:37:49;;;;;;;5.47;3.80;;;7.90;99.90;;;;;;4917729;29;20032;-71
2022/11/20 08:40:15;;;;;;;5.57;3.47;;;7.90;99.90;;;;;;4917359;29;20039;-71
2022/11/20 08:42:48;;;;;;;5.55;3.50;;;8.00;99.90;;;;;;4918767;29;20028;-71
2022/11/20 08:45:14;;;;;;;4.57;3.45;;;7.90;99.90;;;;;;4918858;29;20039;-71
2022/11/20 08:47:40;;;;;;;5.97;3.58;;;7.90;99.90;;;;;;4919096;29;20032;-71
2022/11/20 08:50:06;;;;;;;6.95;3.83;;;7.90;99.90;;;;;;4917463;29;20028;-71
2022/11/20 08:52:32;;;;;;;6.57;3.45;;;8.00;99.90;;;;;;4907111;29;20037;-72
2022/11/20 08:54:57;;;;;;;6.27;3.20;;;8.10;99.90;;;;;;4898493;29;20040;-71
2022/11/20 08:57:23;;;;;;;5.03;3.27;;;8.20;99.90;;;;;;4899991;29;20032;-71
2022/11/20 08:59:48;;;;;;;6.35;3.70;;;8.10;99.90;;;;;;4898655;29;20056;-71
2022/11/20 09:02:15;;;;;;;5.67;3.67;;;8.30;99.90;;;;;;4899762;29;20044;-72
2022/11/20 09:04:40;;;;;;;9.45;3.90;;;8.10;99.90;;;;;;4909238;29;20028;-72
2022/11/20 09:07:06;;;;;;;7.83;3.17;;;8.10;99.90;;;;;;4907941;29;20033;-70
2022/11/20 09:09:32;;;;;;;8.37;3.87;;;8.20;99.90;;;;;;4899682;29;20484;-74
2022/11/20 09:11:58;;;;;;;5.05;3.90;;;8.30;99.90;;;;;;4913677;29;20028;-72
2022/11/20 09:14:28;;;;;;;5.63;3.20;;;8.20;99.90;;;;;;4898655;29;20488;-69
2022/11/20 09:16:55;;;;;;;6.03;3.67;;;8.20;99.90;;;;;;4898517;29;20021;-71
2022/11/20 09:19:20;;;;;;;4.13;3.38;;;8.10;99.90;;;;;;4899529;29;20474;-71
2022/11/20 09:21:46;;;;;;;5.33;3.70;;;8.20;99.90;;;;;;4899477;29;20040;-72
2022/11/20 09:24:11;;;;;;;4.65;3.42;;;8.20;99.90;;;;;;4898340;29;20037;-72
2022/11/20 09:26:37;;;;;;;5.10;3.27;;;8.30;99.90;;;;;;4898786;29;20032;-72
2022/11/20 09:29:03;;;;;;;7.47;4.07;;;8.30;99.90;;;;;;4897901;29;20061;-72
2022/11/20 09:31:28;;;;;;;5.77;3.07;;;8.50;99.90;;;;;;4898400;29;20050;-72
2022/11/20 09:33:54;;;;;;;5.87;3.30;;;8.50;99.90;;;;;;4899653;29;20029;-71
2022/11/20 09:36:19;;;;;;;8.80;3.33;;;8.50;99.90;;;;;;4898277;29;20123;-71
2022/11/20 09:38:46;;;;;;;4.17;3.40;;;8.50;99.90;;;;;;4897574;29;20265;-70
2022/11/20 09:41:41;;;;;;;5.97;3.53;;;8.60;99.90;;;;;;4897859;29;20036;-70
2022/11/20 09:44:39;;;;;;;5.63;4.00;;;8.50;99.90;;;;;;4898155;29;20032;-69
2022/11/20 09:47:15;;;;;;;6.32;4.03;;;8.50;99.90;;;;;;4884643;29;20067;-70
2022/11/20 09:49:53;;;;;;;9.30;4.03;;;8.40;99.90;;;;;;4897551;29;20060;-71
2022/11/20 09:52:41;;;;;;;7.28;4.10;;;8.40;99.90;;;;;;4897447;29;20035;-71
2022/11/20 09:55:11;;;;;;;8.02;4.07;;;8.40;99.90;;;;;;4898820;29;20029;-70
2022/11/20 09:57:40;;;;;;;8.23;4.30;;;8.30;99.90;;;;;;4897286;29;20021;-70
2022/11/20 10:00:13;;;;;;;10.60;4.93;;;8.30;99.90;;;;;;4897626;29;20024;-70
2022/11/20 10:02:47;;;;;;;6.93;4.40;;;8.20;99.90;;;;;;4897692;29;20036;-70
2022/11/20 10:05:17;;;;;;;6.93;4.75;;;8.20;99.90;;;;;;4898630;29;20024;-70
2022/11/20 10:08:09;;;;;;;6.57;5.00;;;8.20;99.90;;;;;;4898587;29;20434;-69
2022/11/20 10:10:46;;;;;;;7.85;5.32;;;8.30;99.90;;;;;;4894558;29;20115;-70
2022/11/20 10:14:02;;;;;;;11.60;4.95;;;8.20;99.90;;;;;;4899694;29;20109;-71
2022/11/20 10:16:48;;;;;;;7.38;4.60;;;8.20;99.90;;;;;;4893837;29;20057;-69
2022/11/20 10:19:58;;;;;;;7.13;4.20;;;8.10;99.90;;;;;;4898642;29;20422;-69
2022/11/20 10:23:04;;;;;;;8.30;4.50;;;8.20;99.90;;;;;;4898451;29;20029;-69
2022/11/20 10:26:11;;;;;;;8.70;4.28;;;8.20;99.90;;;;;;4897020;29;20037;-69
2022/11/20 10:28:51;;;;;;;8.10;4.80;;;8.40;99.90;;;;;;4893147;29;20037;-70
2022/11/20 10:31:32;;;;;;;8.85;4.75;;;8.50;99.90;;;;;;4897991;29;20479;-68
2022/11/20 10:34:01;;;;;;;7.00;4.03;;;8.70;99.90;;;;;;4903091;29;20481;-68
2022/11/20 10:36:33;;;;;;;6.65;4.20;;;9.00;99.90;;;;;;4918423;29;20028;-68
2022/11/20 10:39:05;;;;;;;8.10;3.83;;;9.00;99.90;;;;;;4916759;29;20032;-69
2022/11/20 10:41:38;;;;;;;6.57;3.70;;;9.20;99.90;;;;;;4916743;29;20028;-71
2022/11/20 10:47:18;;;;;;;5.30;3.28;;;9.60;99.90;;;;;;4897191;29;20035;-76
2022/11/20 10:49:48;;;;;;;4.68;3.30;;;9.40;99.90;;;;;;4898659;29;20096;-73
2022/11/20 10:52:41;;;;;;;5.07;3.50;;;9.40;99.90;;;;;;4888125;29;20029;-74
2022/11/20 10:55:35;;;;;;;5.82;3.63;;;9.20;99.90;;;;;;4880751;29;20399;-72
2022/11/20 10:58:13;;;;;;;8.35;3.05;;;9.10;99.90;;;;;;4877977;29;20151;-70
2022/11/20 11:00:39;;;;;;;9.13;3.00;;;9.20;99.90;;;;;;4879503;29;20111;-72
2022/11/20 11:03:22;;;;;;;5.13;3.17;;;9.30;99.90;;;;;;4879724;29;20025;-71
2022/11/20 11:05:54;;;;;;;7.07;3.40;;;9.20;99.90;;;;;;4878596;29;20032;-70
2022/11/20 11:08:22;;;;;;;7.95;2.83;;;9.30;99.90;;;;;;4879913;29;20498;-71
2022/11/20 11:10:54;;;;;;;6.00;3.60;;;9.40;99.90;;;;;;4879790;29;20036;-74
2022/11/20 11:13:28;;;;;;;9.18;3.78;;;9.60;99.90;;;;;;4889156;29;20032;-70
2022/11/20 11:15:55;;;;;;;7.75;2.60;;;9.90;99.90;;;;;;4898449;29;20043;-68
2022/11/20 11:18:39;;;;;;;8.15;2.35;;;10.00;99.90;;;;;;4898547;29;20032;-69
2022/11/20 11:21:05;;;;;;;9.20;3.20;;;10.10;99.90;;;;;;4897963;29;20025;-69
2022/11/20 11:23:30;;;;;;;4.73;2.23;;;10.10;99.90;;;;;;4897841;29;20451;-68
2022/11/20 11:25:58;;;;;;;8.43;2.17;;;10.20;99.90;;;;;;4898142;29;20382;-68
2022/11/20 11:28:26;;;;;;;5.07;2.35;;;10.30;99.90;;;;;;4898050;29;20363;-69
2022/11/20 11:30:51;;;;;;;6.25;2.33;;;10.30;99.90;;;;;;4898065;29;20043;-69
2022/11/20 11:33:27;;;;;;;5.15;1.92;;;10.10;99.90;;;;;;4897124;29;20072;-68
2022/11/20 11:35:59;;;;;;;8.15;2.20;;;9.90;99.90;;;;;;4897757;29;20041;-68
2022/11/20 11:38:34;;;;;;;3.85;1.83;;;10.00;99.90;;;;;;4897549;29;20039;-68
2022/11/20 11:41:01;;;;;;;5.13;2.13;;;10.10;99.90;;;;;;4897606;29;20121;-69
2022/11/20 11:46:33;;;;;;;6.18;2.08;;;10.40;99.90;;;;;;4916742;29;20053;-68
2022/11/20 11:48:58;;;;;;;5.93;1.90;;;10.30;99.90;;;;;;4917249;29;20418;-69
2022/11/20 11:51:41;;;;;;;4.93;2.33;;;10.40;99.90;;;;;;4916599;29;20132;-68
2022/11/20 11:54:30;;;;;;;4.78;1.85;;;10.20;99.90;;;;;;4920199;29;20051;-68
2022/11/20 11:57:00;;;;;;;6.05;1.90;;;10.10;99.90;;;;;;4911952;29;20045;-66
2022/11/20 12:00:03;;;;;;;6.13;1.88;;;10.10;99.90;;;;;;4919900;29;20035;-67
2022/11/20 12:02:42;;;;;;;5.80;2.28;;;10.10;99.90;;;;;;4898870;29;20131;-67
2022/11/20 12:05:28;;;;;;;5.35;2.00;;;10.20;99.90;;;;;;4920608;29;20047;-68
2022/11/20 12:08:03;;;;;;;6.05;3.08;;;10.30;99.90;;;;;;4920418;29;20044;-67
2022/11/20 12:10:57;;;;;;;9.35;2.40;;;10.20;99.90;;;;;;4920407;29;20454;-67
2022/11/20 12:13:46;;;;;;;6.63;1.98;;;10.30;99.90;;;;;;4909673;29;20020;-67
2022/11/20 12:16:17;;;;;;;7.25;1.92;;;10.60;99.90;;;;;;4895684;29;20029;-68
2022/11/20 12:18:43;;;;;;;7.70;1.50;;;10.80;99.90;;;;;;4889100;29;20037;-68
2022/11/20 12:21:19;;;;;;;6.32;1.90;;;11.10;99.90;;;;;;4888328;29;20383;-68
2022/11/20 12:23:51;;;;;;;8.50;1.92;;;11.20;99.90;;;;;;4897163;29;20028;-68
2022/11/20 12:26:33;;;;;;;7.32;1.70;;;11.40;99.90;;;;;;4890724;29;20544;-68
2022/11/20 12:29:30;;;;;;;6.30;1.58;;;11.40;99.90;;;;;;4887751;29;20029;-66
2022/11/20 12:32:14;;;;;;;4.15;1.48;;;11.20;99.90;;;;;;4861742;29;20127;-68
2022/11/20 12:34:56;;;;;;;5.82;2.20;;;11.00;99.90;;;;;;4888909;29;20109;-68
2022/11/20 12:37:28;;;;;;;5.13;1.30;;;10.90;99.90;;;;;;4889019;29;20036;-68
2022/11/20 12:40:01;;;;;;;3.55;1.50;;;10.80;99.90;;;;;;4891056;29;20032;-68
2022/11/20 12:45:33;;;;;;;2.97;1.17;;;10.70;99.90;;;;;;4890095;29;20057;-69
2022/11/20 12:48:37;;;;;;;2.67;1.13;;;10.60;99.90;;;;;;4892285;29;20028;-68
2022/11/20 12:51:32;;;;;;;5.22;1.05;;;10.50;99.90;;;;;;4887290;29;20028;-66
2022/11/20 12:54:15;;;;;;;4.13;1.30;;;10.60;99.90;;;;;;4894753;29;20051;-67
2022/11/20 12:57:18;;;;;;;3.63;1.15;;;10.60;99.90;;;;;;4890465;29;20061;-68
2022/11/20 13:00:11;;;;;;;4.30;1.20;;;10.60;99.90;;;;;;4885768;29;20031;-67
2022/11/20 13:03:13;;;;;;;6.22;1.25;;;10.60;99.90;;;;;;4889091;29;20390;-68
2022/11/20 13:06:11;;;;;;;3.55;1.13;;;10.60;99.90;;;;;;4893040;29;20482;-68
2022/11/20 13:08:39;;;;;;;7.45;1.13;;;10.60;99.90;;;;;;4898759;29;20029;-68
2022/11/20 13:11:41;;;;;;;4.22;1.20;;;10.50;99.90;;;;;;4893973;29;20567;-67
2022/11/20 13:14:19;;;;;;;3.42;0.93;;;10.40;99.90;;;;;;4899363;29;20025;-67
2022/11/20 13:16:59;;;;;;;4.00;1.42;;;10.30;99.90;;;;;;4899850;29;20505;-67
2022/11/20 13:19:26;;;;;;;5.40;1.33;;;10.50;99.90;;;;;;4899733;29;20088;-68
2022/11/20 13:21:52;;;;;;;3.42;0.90;;;10.60;99.90;;;;;;4899516;29;20029;-71
2022/11/20 13:24:29;;;;;;;4.63;1.33;;;10.60;99.90;;;;;;4899365;29;20136;-68
2022/11/20 13:27:07;;;;;;;7.20;1.38;;;10.70;99.90;;;;;;4897740;29;20036;-72
2022/11/20 13:29:35;;;;;;;5.75;1.10;;;10.70;99.90;;;;;;4892827;29;20080;-71
2022/11/20 13:32:03;;;;;;;4.13;1.00;;;10.60;99.90;;;;;;4895189;29;20151;-71
2022/11/20 13:34:29;;;;;;;3.22;1.38;;;10.70;99.90;;;;;;4880750;29;20492;-70
2022/11/20 13:36:57;;;;;;;3.20;0.95;;;10.70;99.90;;;;;;4880507;29;20033;-72
2022/11/20 13:39:27;;;;;;;5.20;1.08;;;10.60;99.90;;;;;;4880208;29;20033;-71
2022/11/20 13:42:27;;;;;;;3.85;0.93;;;10.60;99.90;;;;;;4894828;29;20029;-72
2022/11/20 13:45:08;;;;;;;4.07;1.30;;;10.60;99.90;;;;;;4879028;29;20119;-72
2022/11/20 13:47:36;;;;;;;4.90;1.23;;;10.60;99.90;;;;;;4877505;29;20053;-73
2022/11/20 13:50:04;;;;;;;2.90;0.90;;;10.60;99.90;;;;;;4878921;29;20032;-72
2022/11/20 13:52:32;;;;;;;1.98;0.70;;;10.70;99.90;;;;;;4879281;29;20027;-68
2022/11/20 13:55:12;;;;;;;3.80;0.95;;;10.60;99.90;;;;;;4881074;29;20025;-69
2022/11/20 13:58:05;;;;;;;4.80;0.80;;;10.40;99.90;;;;;;4880305;29;20112;-69
2022/11/20 14:00:31;;;;;;;3.05;1.10;;;10.40;99.90;;;;;;4876787;29;20040;-68
2022/11/20 14:03:05;;;;;;;2.20;1.00;;;10.30;99.90;;;;;;4880646;29;20387;-72
2022/11/20 14:05:35;;;;;;;2.47;0.90;;;10.20;99.90;;;;;;4886871;29;20095;-70
2022/11/20 14:08:03;;;;;;;4.72;1.05;;;10.20;99.90;;;;;;4901666;29;20031;-71
2022/11/20 14:10:29;;;;;;;5.18;1.73;;;10.00;99.90;;;;;;4900782;29;20103;-69
2022/11/20 14:12:55;;;;;;;3.42;1.48;;;10.10;99.90;;;;;;4898489;29;20082;-68
2022/11/20 14:15:40;;;;;;;4.47;1.30;;;10.00;99.90;;;;;;4894855;29;20028;-69
2022/11/20 14:18:14;;;;;;;4.10;1.15;;;9.90;99.90;;;;;;4891819;29;20477;-69
2022/11/20 14:20:41;;;;;;;2.00;1.10;;;9.90;99.90;;;;;;4882076;29;20463;-69
2022/11/20 14:23:10;;;;;;;4.65;1.20;;;10.00;99.90;;;;;;4891333;29;20029;-68
2022/11/20 14:25:36;;;;;;;4.50;1.33;;;10.00;99.90;;;;;;4897207;29;20040;-70
2022/11/20 14:28:04;;;;;;;4.50;1.30;;;10.10;99.90;;;;;;4898396;29;20028;-70
2022/11/20 14:30:46;;;;;;;2.78;1.40;;;10.00;99.90;;;;;;4897805;29;20119;-71
2022/11/20 14:33:13;;;;;;;3.90;1.20;;;10.00;99.90;;;;;;4899526;29;20021;-69
2022/11/20 14:35:50;;;;;;;5.47;1.30;;;10.10;99.90;;;;;;4899190;29;20036;-70
2022/11/20 14:38:21;;;;;;;4.10;1.10;;;9.90;99.90;;;;;;4898785;29;20088;-69
2022/11/20 14:40:47;;;;;;;4.38;0.93;;;9.80;99.90;;;;;;4902112;29;20040;-69
2022/11/20 14:43:27;;;;;;;3.23;1.20;;;9.80;99.90;;;;;;4902992;29;20025;-69
2022/11/20 14:46:05;;;;;;;4.82;1.20;;;9.80;99.90;;;;;;4903120;29;20328;-69
2022/11/20 14:48:46;;;;;;;3.70;1.10;;;9.80;99.90;;;;;;4901091;29;20025;-69
2022/11/20 14:51:27;;;;;;;2.75;1.15;;;9.80;99.90;;;;;;4899754;29;20096;-68
2022/11/20 14:53:52;;;;;;;3.13;1.10;;;9.70;99.90;;;;;;4900526;29;20498;-68
2022/11/20 14:56:23;;;;;;;3.77;1.23;;;9.70;99.90;;;;;;4898397;29;20036;-67
2022/11/20 14:58:57;;;;;;;3.50;1.15;;;9.70;99.90;;;;;;4898621;29;20033;-68
2022/11/20 15:01:30;;;;;;;5.20;1.10;;;9.70;99.90;;;;;;4899204;29;20497;-68
2022/11/20 15:04:11;;;;;;;3.45;1.00;;;9.70;99.90;;;;;;4899201;29;20459;-68
2022/11/20 15:06:49;;;;;;;4.70;1.02;;;9.70;99.90;;;;;;4899364;29;20455;-68
2022/11/20 15:09:15;;;;;;;5.97;1.25;;;9.70;99.90;;;;;;4898672;29;20039;-69
2022/11/20 15:11:55;;;;;;;3.63;1.10;;;9.60;99.90;;;;;;4897719;29;20060;-69
2022/11/20 15:14:22;;;;;;;4.63;1.25;;;9.60;99.90;;;;;;4916113;29;20513;-69
2022/11/20 15:16:48;;;;;;;4.05;1.20;;;9.50;99.90;;;;;;4911575;29;20029;-68
2022/11/20 15:19:32;;;;;;;3.65;1.17;;;9.50;99.90;;;;;;4895033;29;20084;-68
2022/11/20 15:21:57;;;;;;;2.08;1.30;;;9.40;99.90;;;;;;4892699;29;20402;-68
2022/11/20 15:24:23;;;;;;;2.87;1.33;;;9.40;99.90;;;;;;4898102;29;20032;-69
2022/11/20 15:26:48;;;;;;;4.63;1.57;;;9.40;99.90;;;;;;4898907;29;20048;-67
2022/11/20 15:29:19;;;;;;;3.20;1.20;;;9.40;99.90;;;;;;4901644;29;20025;-67
2022/11/20 15:31:44;;;;;;;4.68;1.45;;;9.40;99.90;;;;;;4901915;29;20017;-69
2022/11/20 15:34:15;;;;;;;4.10;1.30;;;9.40;99.90;;;;;;4916552;29;20036;-68
2022/11/20 15:36:41;;;;;;;3.58;2.00;;;9.40;99.90;;;;;;4901334;29;20426;-68
2022/11/20 15:39:08;;;;;;;5.38;1.33;;;9.40;99.90;;;;;;4903483;29;20035;-67
2022/11/20 15:41:37;;;;;;;3.60;1.50;;;9.40;99.90;;;;;;4902917;29;20052;-68
2022/11/20 15:44:06;;;;;;;4.90;1.80;;;9.30;99.90;;;;;;4918109;29;20182;-68
2022/11/20 15:46:38;;;;;;;7.18;2.50;;;9.40;99.90;;;;;;4920921;29;20496;-68
2022/11/20 15:49:04;;;;;;;7.10;2.88;;;9.30;99.90;;;;;;4922323;29;20062;-69
2022/11/20 15:51:35;;;;;;;6.90;2.95;;;9.30;99.90;;;;;;4921707;29;20114;-68
2022/11/20 15:54:09;;;;;;;7.32;3.03;;;9.30;99.90;;;;;;4923904;29;20090;-68
2022/11/20 15:56:35;;;;;;;13.20;4.57;;;9.30;99.90;;;;;;4923351;29;20036;-67
2022/11/20 15:59:00;;;;;;;5.57;1.70;;;9.40;99.90;;;;;;4921364;29;20035;-68
2022/11/20 16:01:26;;;;;;;3.70;1.70;;;9.40;99.90;;;;;;4920418;29;20063;-69
2022/11/20 16:03:52;;;;;;;13.93;5.23;;;9.40;99.90;;;;;;4919698;29;20039;-68
2022/11/20 16:06:17;;;;;;;5.27;2.10;;;9.40;99.90;;;;;;4918617;29;20035;-68
2022/11/20 16:08:43;;;;;;;4.30;2.00;;;9.40;99.90;;;;;;4919926;29;20035;-68
2022/11/20 16:11:13;;;;;;;9.80;3.73;;;9.40;99.90;;;;;;4919572;29;20393;-68
2022/11/20 16:16:28;;;;;;;4.57;1.70;;;9.40;99.90;;;;;;4919386;29;20453;-67
2022/11/20 16:18:54;;;;;;;5.13;1.77;;;9.40;99.90;;;;;;4919799;29;20034;-67
2022/11/20 16:21:20;;;;;;;6.05;1.80;;;9.40;99.90;;;;;;4919484;29;20444;-70
2022/11/20 16:23:45;;;;;;;4.73;2.17;;;9.40;99.90;;;;;;4919674;29;20071;-68
2022/11/20 16:26:20;;;;;;;4.77;1.53;;;9.40;99.90;;;;;;4919184;29;20042;-67
2022/11/20 16:28:46;;;;;;;3.15;1.55;;;9.30;99.90;;;;;;4919065;29;20098;-66
2022/11/20 16:31:14;;;;;;;4.13;2.00;;;9.40;99.90;;;;;;4919219;29;20032;-70
2022/11/20 16:33:40;;;;;;;4.88;1.95;;;9.30;99.90;;;;;;4919832;29;20462;-70
2022/11/20 16:36:08;;;;;;;8.77;3.03;;;9.40;99.90;;;;;;4920082;29;20060;-69
2022/11/20 16:38:34;;;;;;;6.13;2.90;;;9.40;99.90;;;;;;4907089;29;20116;-68
2022/11/20 16:41:03;;;;;;;5.60;1.67;;;9.40;99.90;;;;;;4895954;29;20455;-69
2022/11/20 16:43:29;;;;;;;5.70;1.98;;;9.30;99.90;;;;;;4911163;29;20060;-68
2022/11/20 16:45:54;;;;;;;9.53;3.67;;;9.30;99.90;;;;;;4903151;29;20510;-69
2022/11/20 16:48:20;;;;;;;3.43;1.53;;;9.40;99.90;;;;;;4899888;29;20117;-69
2022/11/20 16:50:50;;;;;;;4.27;1.57;;;9.30;99.90;;;;;;4897982;29;20028;-68
2022/11/20 16:53:18;;;;;;;4.80;1.95;;;9.20;99.90;;;;;;4899003;29;20024;-68
2022/11/20 16:55:44;;;;;;;4.78;1.95;;;9.20;99.90;;;;;;4891903;29;20080;-69
2022/11/20 16:58:10;;;;;;;3.45;1.77;;;9.10;99.90;;;;;;4883500;29;20084;-70
2022/11/20 17:00:39;;;;;;;4.87;1.87;;;9.00;99.90;;;;;;4893186;29;20517;-68
2022/11/20 17:03:05;;;;;;;3.22;1.58;;;9.00;99.90;;;;;;4899697;29;20037;-70
2022/11/20 17:05:31;;;;;;;5.97;2.55;;;9.00;99.90;;;;;;4886518;29;20459;-71
2022/11/20 17:07:57;;;;;;;5.43;2.05;;;9.10;99.90;;;;;;4882337;29;20394;-70
2022/11/20 17:10:23;;;;;;;3.03;1.48;;;9.10;99.90;;;;;;4881335;29;20028;-71
2022/11/20 17:12:48;;;;;;;2.60;1.30;;;9.10;99.90;;;;;;4891448;29;20389;-70
2022/11/20 17:15:14;;;;;;;7.27;2.67;;;9.00;99.90;;;;;;4918534;29;20024;-70
2022/11/20 17:17:39;;;;;;;29.73;18.57;;;9.00;99.90;;;;;;4919112;29;20028;-71
2022/11/20 17:20:05;;;;;;;32.87;19.90;;;9.00;99.90;;;;;;4918571;29;20024;-71
2022/11/20 17:22:31;;;;;;;9.82;4.30;;;9.00;99.90;;;;;;4917577;29;20028;-71
2022/11/20 17:24:57;;;;;;;11.02;5.40;;;9.00;99.90;;;;;;4918664;29;20036;-70
2022/11/20 17:27:22;;;;;;;5.63;1.70;;;9.00;99.90;;;;;;4910740;29;20029;-71
2022/11/20 17:29:48;;;;;;;3.50;1.40;;;8.90;99.90;;;;;;4899161;29;20367;-70
2022/11/20 17:32:14;;;;;;;3.37;1.37;;;8.90;99.90;;;;;;4898146;29;20024;-69
2022/11/20 17:34:39;;;;;;;4.57;1.60;;;8.90;99.90;;;;;;4899291;29;20035;-71
2022/11/20 17:37:05;;;;;;;6.10;1.70;;;8.80;99.90;;;;;;4899722;29;20036;-71
2022/11/20 17:39:31;;;;;;;5.68;1.83;;;8.70;99.90;;;;;;4899271;29;20024;-70
2022/11/20 17:44:41;;;;;;;5.25;1.50;;;8.60;99.90;;;;;;4881808;29;20043;-70
2022/11/20 17:47:07;;;;;;;3.03;1.40;;;8.60;99.90;;;;;;4881770;29;20420;-70
2022/11/20 17:49:32;;;;;;;4.77;1.70;;;8.60;99.90;;;;;;4895382;29;20040;-70
2022/11/20 17:51:58;;;;;;;4.33;1.50;;;8.60;99.90;;;;;;4882292;29;20029;-71
2022/11/20 17:54:24;;;;;;;2.30;1.33;;;8.60;99.90;;;;;;4880991;29;20084;-70
2022/11/20 17:59:34;;;;;;;3.30;1.38;;;8.70;99.90;;;;;;4880450;29;20112;-70
2022/11/20 18:01:59;;;;;;;4.53;1.50;;;8.60;99.90;;;;;;4880067;29;20041;-70
2022/11/20 18:04:25;;;;;;;3.73;1.50;;;8.50;99.90;;;;;;4880157;29;20025;-70
2022/11/20 18:06:50;;;;;;;6.17;1.50;;;8.50;99.90;;;;;;4894565;29;20116;-71
2022/11/20 18:09:16;;;;;;;4.80;1.43;;;8.40;99.90;;;;;;4880195;29;20021;-70
2022/11/20 18:11:42;;;;;;;3.57;2.10;;;8.50;99.90;;;;;;4879709;29;20077;-71
2022/11/20 18:14:28;;;;;;;4.60;1.40;;;8.50;99.90;;;;;;4912073;29;20083;-71
2022/11/20 18:17:03;;;;;;;3.05;1.50;;;8.50;99.90;;;;;;4917476;29;20036;-71
2022/11/20 18:19:38;;;;;;;3.53;1.55;;;8.30;99.90;;;;;;4893373;29;20021;-71
2022/11/20 18:22:05;;;;;;;3.17;1.42;;;8.30;99.90;;;;;;4897994;29;20493;-69
2022/11/20 18:24:31;;;;;;;4.05;2.40;;;8.20;99.90;;;;;;4899158;29;20482;-70
2022/11/20 18:26:57;;;;;;;3.90;1.80;;;8.10;99.90;;;;;;4915518;29;20024;-71
2022/11/20 18:29:23;;;;;;;;;;;8.00;99.90;;;;;;4918525;29;20052;-70
2022/11/20 18:31:49;;;;;;;2.83;1.40;;;7.90;99.90;;;;;;4917480;29;19914;-70
2022/11/20 18:34:15;;;;;;;3.30;1.10;;;7.80;99.90;;;;;;4917664;29;20020;-71
2022/11/20 18:36:41;;;;;;;2.88;1.60;;;7.80;99.90;;;;;;4916647;29;20354;-69